Harkers Island, NC (28531)

2:26 AM EDT on August 25, 2016 (GMT -0400)
Whitehurst Creek | | Change Station

Elev 20 ft 34.74 °N, 76.55 °W | Updated 5 seconds ago

Clear
Clear
70.7 °F
Feels Like 70.7 °F
N
0.0
Wind Variable Wind from SSE
Gusts 0.0 mph

Today
High -- | Low -- °F
--% Chance of Precip.
Yesterday
High -- | Low -- °F
Precip. -- in
Pressure 30.17 in
Visibility 10.0 miles
Clouds Clear
Dew Point 70 °F
Humidity 97%
Rainfall 0.00 in
Snow Depth Not available.
6:34 AM 7:41 PM
Waning Gibbous, 49% visible
METAR KMRH 250558Z AUTO 00000KT 10SM CLR 22/22 A3017 RMK AO2 SLP216 60001 T02220217 10250 20222 56010 TSNO
Pressure 30.17 in
Visibility 10.0 miles
Clouds Clear
Dew Point 70 °F
Humidity 97%
Rainfall 0.00 in
Snow Depth Not available.
6:34 AM 7:41 PM
Waning Gibbous, 49% visible
METAR KMRH 250558Z AUTO 00000KT 10SM CLR 22/22 A3017 RMK AO2 SLP216 60001 T02220217 10250 20222 56010 TSNO

10-Day Weather Forecast

Almanac

Astronomy

Aug. 25, 2016 Rise Set
Actual Time
Civil Twilight
Nautical Twilight
Astronomical Twilight
Moon
Length of Visible Light
Length of Day
Tomorrow will be .
, % of the Moon is Illuminated

Today's Extremes

State Highs State Lows

Community

WunderPhotos

Upload Photos

1,934,803 photos uploaded!

WunderBlog® & News

Nearby

Air Quality

  Air Quality AQ Index Pollutant
Not available.

Snow Depth

Station Depth Elevation

Earthquake Activity

City Distance Mag. Time & Date
Minimum magnitude displayed is 2.5.

Coastal Water Temperatures

Place Temperature

Stations

Nearby Weather Stations

Station Location Temp. Windchill Dew Point Humidity Wind Precip. Elev Updated Type
                   

Watches & Warnings

There are currently no watches in effect.